createdAt,value
2018-06-04T00:00:14.036Z,16.90
2018-06-04T00:02:43.323Z,17.63
2018-06-04T00:05:12.719Z,17.40
2018-06-04T00:07:42.111Z,16.33
2018-06-04T00:10:11.389Z,17.57
2018-06-04T00:12:40.205Z,16.87
2018-06-04T00:15:09.505Z,17.90
2018-06-04T00:17:38.929Z,18.03
2018-06-04T00:20:08.316Z,19.97
2018-06-04T00:22:37.475Z,18.67
2018-06-04T00:25:06.786Z,18.67
2018-06-04T00:27:35.870Z,18.13
2018-06-04T00:30:05.096Z,17.37
2018-06-04T00:32:34.291Z,19.20
2018-06-04T00:35:03.492Z,19.93
2018-06-04T00:37:32.925Z,19.60
2018-06-04T00:40:02.212Z,19.37
2018-06-04T00:42:31.391Z,17.83
2018-06-04T00:45:00.563Z,17.33
2018-06-04T00:47:29.816Z,18.53
2018-06-04T00:49:58.940Z,17.97
2018-06-04T00:52:28.177Z,19.90
2018-06-04T00:54:57.268Z,18.63
2018-06-04T00:57:26.571Z,20.60
2018-06-04T00:59:55.872Z,20.70
2018-06-04T01:02:25.852Z,20.90
2018-06-04T01:04:55.904Z,20.23
2018-06-04T01:07:25.210Z,20.00
2018-06-04T01:09:54.390Z,18.70
2018-06-04T01:12:23.600Z,18.20
2018-06-04T01:14:52.752Z,18.97
2018-06-04T01:17:22.036Z,17.97
2018-06-04T01:19:51.145Z,17.77
2018-06-04T01:22:20.387Z,19.67
2018-06-04T01:24:49.612Z,21.27
2018-06-04T01:27:18.979Z,18.57
2018-06-04T01:29:48.141Z,18.43
2018-06-04T01:32:17.412Z,19.90
2018-06-04T01:34:46.571Z,21.60
2018-06-04T01:37:15.760Z,18.73
2018-06-04T01:39:45.552Z,20.43
2018-06-04T01:42:14.636Z,20.00
2018-06-04T01:44:43.872Z,21.23
2018-06-04T01:47:13.068Z,21.17
2018-06-04T01:49:42.287Z,19.43
2018-06-04T01:52:11.339Z,18.30
2018-06-04T01:54:40.035Z,18.77
2018-06-04T01:57:09.342Z,17.90
2018-06-04T01:59:38.515Z,18.93
2018-06-04T02:02:07.808Z,18.67
2018-06-04T02:04:36.906Z,18.47
2018-06-04T02:07:06.288Z,18.93
2018-06-04T02:09:35.533Z,18.80
2018-06-04T02:12:04.736Z,18.83
2018-06-04T02:14:33.909Z,21.67
2018-06-04T02:17:03.155Z,43.87
2018-06-04T02:19:32.280Z,32.83
2018-06-04T02:22:01.508Z,37.33
2018-06-04T02:24:30.711Z,33.07
2018-06-04T02:26:59.921Z,35.63
2018-06-04T02:29:29.076Z,35.03
2018-06-04T02:31:58.352Z,39.90
2018-06-04T02:34:27.469Z,49.33
2018-06-04T02:36:56.692Z,42.93
2018-06-04T02:39:25.914Z,48.57
2018-06-04T02:41:55.296Z,42.30
2018-06-04T02:44:24.459Z,39.37
2018-06-04T02:46:53.717Z,35.10
2018-06-04T02:49:22.844Z,35.17
2018-06-04T02:51:52.080Z,35.83
2018-06-04T02:54:21.269Z,40.93
2018-06-04T02:56:50.487Z,38.03
2018-06-04T02:59:19.636Z,39.60
2018-06-04T03:01:48.915Z,33.40
2018-06-04T03:04:18.019Z,31.53
2018-06-04T03:06:47.278Z,30.77
2018-06-04T03:09:16.464Z,31.27
2018-06-04T03:11:45.858Z,32.27
2018-06-04T03:14:15.020Z,36.80
2018-06-04T03:16:44.169Z,35.03
2018-06-04T03:19:13.347Z,35.70
2018-06-04T03:21:42.643Z,34.47
2018-06-04T03:24:11.840Z,34.47
2018-06-04T03:26:41.040Z,32.93
2018-06-04T03:29:09.602Z,36.80
2018-06-04T03:31:38.860Z,35.07
2018-06-04T03:34:07.979Z,30.27
2018-06-04T03:36:37.215Z,30.30
2018-06-04T03:39:08.215Z,30.97
2018-06-04T03:41:37.443Z,28.03
2018-06-04T03:44:06.815Z,29.63
2018-06-04T03:46:36.098Z,31.67
2018-06-04T03:49:05.203Z,37.20
2018-06-04T03:51:34.440Z,41.73
2018-06-04T03:54:03.651Z,47.80
2018-06-04T03:56:33.056Z,46.70
2018-06-04T03:59:02.219Z,51.87
2018-06-04T04:01:31.481Z,51.87
2018-06-04T04:04:00.776Z,53.27
2018-06-04T04:06:29.903Z,48.73
2018-06-04T04:08:59.165Z,43.47
2018-06-04T04:11:28.289Z,36.07
2018-06-04T04:13:57.516Z,33.80
2018-06-04T04:16:26.210Z,32.80
2018-06-04T04:18:55.595Z,31.30
2018-06-04T04:21:25.752Z,33.03
2018-06-04T04:23:55.161Z,33.27
2018-06-04T04:26:24.309Z,35.10
2018-06-04T04:28:53.536Z,34.33
2018-06-04T04:31:22.852Z,34.83
2018-06-04T04:33:52.168Z,33.63
2018-06-04T04:36:21.283Z,33.53
2018-06-04T04:38:50.547Z,31.73
2018-06-04T04:41:20.259Z,32.77
2018-06-04T04:43:49.384Z,30.43
2018-06-04T04:46:18.790Z,29.00
2018-06-04T04:48:48.408Z,28.77
2018-06-04T04:51:17.373Z,30.80
2018-06-04T04:53:46.772Z,27.07
2018-06-04T04:56:16.042Z,22.87
2018-06-04T04:58:45.177Z,23.17
2018-06-04T05:01:14.695Z,23.60
2018-06-04T05:03:43.783Z,24.23
2018-06-04T05:06:13.035Z,24.47
2018-06-04T05:08:42.101Z,25.63
2018-06-04T05:11:11.449Z,23.77
2018-06-04T05:13:40.577Z,22.40
2018-06-04T05:16:09.892Z,25.80
2018-06-04T05:18:38.959Z,24.00
2018-06-04T05:21:08.203Z,22.90
2018-06-04T05:23:37.409Z,21.33
2018-06-04T05:26:06.666Z,20.80
2018-06-04T05:28:35.931Z,21.30
2018-06-04T05:31:05.296Z,20.37
2018-06-04T05:33:34.805Z,21.73
2018-06-04T05:36:04.121Z,22.00
2018-06-04T05:38:33.332Z,20.57
2018-06-04T05:41:02.452Z,20.10
2018-06-04T05:43:31.688Z,19.90
2018-06-04T05:46:01.025Z,19.43
2018-06-04T05:48:30.445Z,20.13
2018-06-04T05:50:59.550Z,20.27
2018-06-04T05:53:28.814Z,19.60
2018-06-04T05:55:58.262Z,19.53
2018-06-04T05:58:27.357Z,19.07
2018-06-04T06:00:56.626Z,18.80
2018-06-04T06:03:25.799Z,17.93
2018-06-04T06:05:55.180Z,17.70
2018-06-04T06:08:24.402Z,17.70
2018-06-04T06:10:53.763Z,18.40
2018-06-04T06:13:23.113Z,16.47
2018-06-04T06:15:52.346Z,17.03
2018-06-04T06:18:21.663Z,17.20
2018-06-04T06:20:50.847Z,18.00
2018-06-04T06:23:20.185Z,18.47
2018-06-04T06:25:49.377Z,17.60
2018-06-04T06:28:18.902Z,17.10
2018-06-04T06:30:48.079Z,17.37
2018-06-04T06:33:17.556Z,16.77
2018-06-04T06:35:46.996Z,16.27
2018-06-04T06:38:16.188Z,16.30
2018-06-04T06:40:46.138Z,16.23
2018-06-04T06:43:15.583Z,13.80
2018-06-04T06:45:45.090Z,15.17
2018-06-04T06:48:14.380Z,14.77
2018-06-04T06:50:43.709Z,15.00
2018-06-04T06:53:13.300Z,14.07
2018-06-04T06:55:42.459Z,12.47
2018-06-04T06:58:11.720Z,11.93
2018-06-04T07:00:41.100Z,11.77
2018-06-04T07:03:10.492Z,11.67
2018-06-04T07:05:39.808Z,12.47
2018-06-04T07:08:09.003Z,11.67
2018-06-04T07:10:38.383Z,11.60
2018-06-04T07:13:07.615Z,11.37
2018-06-04T07:15:37.016Z,9.67
2018-06-04T07:18:06.320Z,10.07
2018-06-04T07:20:35.461Z,9.00
2018-06-04T07:23:04.740Z,11.10
2018-06-04T07:25:33.846Z,11.93
2018-06-04T07:28:03.625Z,11.07
2018-06-04T07:30:32.811Z,11.70
2018-06-04T07:33:01.965Z,11.53
2018-06-04T07:35:31.186Z,10.80
2018-06-04T07:37:59.702Z,11.17
2018-06-04T07:40:28.874Z,10.27
2018-06-04T07:42:58.224Z,9.30
2018-06-04T07:45:27.395Z,10.00
2018-06-04T07:47:56.598Z,10.10
2018-06-04T07:50:26.337Z,9.23
2018-06-04T07:52:55.531Z,8.80
2018-06-04T07:55:24.575Z,8.87
2018-06-04T07:57:53.796Z,78.97
2018-06-04T08:00:23.012Z,30.33
2018-06-04T08:02:52.232Z,11.75
2018-06-04T08:05:21.368Z,10.45
2018-06-04T08:07:50.628Z,11.57
2018-06-04T08:10:19.909Z,9.30
2018-06-04T08:12:48.948Z,9.83
2018-06-04T08:15:18.165Z,9.30
2018-06-04T08:17:47.400Z,9.33
2018-06-04T08:20:16.540Z,9.68
2018-06-04T08:22:45.796Z,9.58
2018-06-04T08:25:14.900Z,9.05
2018-06-04T08:27:44.273Z,9.48
2018-06-04T08:30:13.403Z,10.43
2018-06-04T08:32:43.196Z,10.80
2018-06-04T08:35:12.265Z,12.10
2018-06-04T08:37:41.469Z,8.98
2018-06-04T08:40:10.716Z,9.85
2018-06-04T08:42:39.845Z,9.85
2018-06-04T08:45:09.089Z,8.90
2018-06-04T08:47:38.184Z,9.38
2018-06-04T08:50:07.450Z,9.18
2018-06-04T08:52:36.648Z,11.08
2018-06-04T08:55:05.775Z,10.63
2018-06-04T08:57:34.789Z,9.85
2018-06-04T09:00:03.860Z,10.18
2018-06-04T09:02:32.953Z,9.88
2018-06-04T09:05:02.136Z,10.60
2018-06-04T09:07:31.191Z,9.90
2018-06-04T09:10:00.439Z,9.78
2018-06-04T09:12:29.593Z,9.83
2018-06-04T09:14:58.839Z,10.00
2018-06-04T09:17:28.148Z,17.87
2018-06-04T09:19:57.402Z,13.38
2018-06-04T09:22:26.600Z,10.48
2018-06-04T09:24:55.826Z,10.13
2018-06-04T09:27:24.833Z,9.78
2018-06-04T09:29:54.026Z,10.48
2018-06-04T09:32:23.317Z,10.50
2018-06-04T09:34:52.277Z,10.30
2018-06-04T09:37:21.515Z,10.00
2018-06-04T09:39:50.629Z,9.45
2018-06-04T09:42:19.859Z,9.28
2018-06-04T09:44:49.043Z,10.00
2018-06-04T09:47:18.264Z,9.98
2018-06-04T09:49:47.423Z,15.03
2018-06-04T09:52:16.700Z,10.55
2018-06-04T09:54:45.801Z,9.45
2018-06-04T09:57:15.292Z,9.80
2018-06-04T09:59:44.628Z,9.73
2018-06-04T10:02:13.754Z,9.60
2018-06-04T10:04:42.968Z,9.70
2018-06-04T10:07:11.547Z,9.13
2018-06-04T10:09:40.708Z,9.43
2018-06-04T10:12:09.906Z,9.18
2018-06-04T10:14:39.191Z,9.33
2018-06-04T10:17:08.275Z,8.95
2018-06-04T10:19:37.544Z,9.15
2018-06-04T10:22:06.679Z,8.93
2018-06-04T10:24:35.920Z,8.98
2018-06-04T10:27:05.118Z,8.98
2018-06-04T10:29:34.359Z,9.23
2018-06-04T10:32:03.466Z,8.48
2018-06-04T10:34:32.716Z,8.40
2018-06-04T10:37:01.910Z,8.80
2018-06-04T10:39:31.073Z,8.75
2018-06-04T10:42:00.243Z,9.25
2018-06-04T10:44:29.585Z,8.65
2018-06-04T10:46:58.670Z,8.80
2018-06-04T10:49:27.901Z,9.58
2018-06-04T10:51:57.140Z,9.35
2018-06-04T10:54:26.333Z,9.78
2018-06-04T10:56:55.801Z,8.40
2018-06-04T10:59:25.358Z,8.83
2018-06-04T11:01:54.580Z,9.15
2018-06-04T11:04:23.837Z,9.75
2018-06-04T11:06:53.216Z,10.25
2018-06-04T11:09:22.318Z,9.88
2018-06-04T11:11:51.565Z,10.30
2018-06-04T11:14:20.808Z,10.78
2018-06-04T11:16:50.545Z,11.90
2018-06-04T11:19:20.084Z,13.78
2018-06-04T11:21:49.595Z,13.95
2018-06-04T11:24:18.661Z,13.90
2018-06-04T11:26:48.040Z,15.38
2018-06-04T11:29:18.072Z,15.78
2018-06-04T11:31:47.258Z,18.37
2018-06-04T11:34:16.533Z,20.82
2018-06-04T11:36:46.142Z,19.98
2018-06-04T11:39:20.589Z,20.00
2018-06-04T11:41:50.203Z,17.20
2018-06-04T11:44:20.223Z,15.55
2018-06-04T11:46:49.605Z,13.80
2018-06-04T11:49:19.149Z,12.07
2018-06-04T11:51:48.781Z,11.50
2018-06-04T11:54:18.117Z,12.53
2018-06-04T11:56:47.404Z,11.38
2018-06-04T11:59:17.143Z,10.20
2018-06-04T12:01:46.517Z,9.93
2018-06-04T12:04:15.767Z,9.63
2018-06-04T12:06:44.873Z,9.28
2018-06-04T12:09:14.451Z,9.08
2018-06-04T12:11:43.988Z,8.08
2018-06-04T12:14:13.057Z,8.60
2018-06-04T12:16:42.350Z,8.30
2018-06-04T12:19:11.692Z,7.50
2018-06-04T12:21:41.040Z,8.68
2018-06-04T12:24:10.112Z,7.95
2018-06-04T12:26:39.135Z,7.78
2018-06-04T12:29:08.332Z,8.03
2018-06-04T12:31:37.568Z,7.80
2018-06-04T12:34:06.980Z,7.70
2018-06-04T12:36:36.236Z,7.55
2018-06-04T12:39:08.218Z,8.03
2018-06-04T12:41:37.253Z,7.95
2018-06-04T12:44:06.477Z,9.85
2018-06-04T12:46:35.797Z,11.08
2018-06-04T12:49:05.006Z,8.85
2018-06-04T12:51:34.387Z,8.60
2018-06-04T12:54:03.836Z,8.28
2018-06-04T12:56:33.031Z,7.60
2018-06-04T12:59:02.299Z,7.22
2018-06-04T13:01:31.827Z,7.85
2018-06-04T13:04:01.064Z,7.72
2018-06-04T13:06:30.187Z,8.10
2018-06-04T13:08:59.401Z,7.58
2018-06-04T13:11:28.746Z,8.73
2018-06-04T13:13:58.000Z,8.65
2018-06-04T13:16:27.834Z,8.30
2018-06-04T13:18:56.992Z,9.05
2018-06-04T13:21:26.490Z,8.53
2018-06-04T13:23:56.144Z,8.00
2018-06-04T13:26:25.895Z,9.30
2018-06-04T13:28:55.480Z,8.05
2018-06-04T13:31:24.871Z,8.63
2018-06-04T13:33:54.211Z,8.85
2018-06-04T13:36:23.812Z,8.85
2018-06-04T13:38:53.646Z,8.75
2018-06-04T13:41:23.374Z,8.50
2018-06-04T13:43:52.892Z,8.35
2018-06-04T13:46:22.475Z,8.45
2018-06-04T13:48:52.006Z,8.38
2018-06-04T13:51:21.318Z,8.43
2018-06-04T13:53:50.887Z,9.10
2018-06-04T13:56:20.156Z,8.58
2018-06-04T13:58:49.499Z,7.95
2018-06-04T14:01:18.756Z,8.60
2018-06-04T14:03:48.499Z,8.70
2018-06-04T14:06:17.603Z,8.10
2018-06-04T14:08:47.628Z,9.00
2018-06-04T14:11:17.069Z,8.85
2018-06-04T14:13:46.815Z,8.53
2018-06-04T14:16:16.316Z,8.63
2018-06-04T14:18:45.818Z,8.38
2018-06-04T14:21:15.176Z,7.97
2018-06-04T14:23:45.067Z,8.28
2018-06-04T14:26:14.501Z,8.33
2018-06-04T14:28:44.565Z,8.48
2018-06-04T14:31:13.970Z,8.05
2018-06-04T14:33:43.355Z,7.97
2018-06-04T14:36:13.405Z,8.28
2018-06-04T14:38:42.883Z,8.10
2018-06-04T14:41:12.251Z,9.23
2018-06-04T14:43:41.551Z,8.15
2018-06-04T14:46:11.835Z,8.15
2018-06-04T14:48:41.228Z,8.20
2018-06-04T14:51:10.524Z,7.87
2018-06-04T14:53:39.551Z,7.95
2018-06-04T14:56:09.116Z,8.23
2018-06-04T14:58:38.238Z,8.23
2018-06-04T15:01:07.601Z,8.23
2018-06-04T15:03:37.005Z,8.53
2018-06-04T15:06:06.411Z,8.30
2018-06-04T15:08:35.587Z,7.35
2018-06-04T15:11:04.581Z,8.35
2018-06-04T15:13:33.912Z,9.00
2018-06-04T15:16:03.595Z,7.58
2018-06-04T15:18:33.081Z,7.28
2018-06-04T15:21:02.267Z,6.87
2018-06-04T15:23:31.559Z,8.03
2018-06-04T15:26:01.256Z,8.53
2018-06-04T15:28:30.360Z,6.53
2018-06-04T15:30:59.735Z,7.55
2018-06-04T15:33:30.040Z,7.45
2018-06-04T15:35:59.321Z,7.17
2018-06-04T15:38:29.189Z,6.55
2018-06-04T15:40:59.266Z,7.15
2018-06-04T15:43:28.811Z,6.33
2018-06-04T15:45:58.222Z,7.55
2018-06-04T15:48:27.739Z,7.45
2018-06-04T15:50:57.117Z,7.03
2018-06-04T15:53:26.322Z,8.50
2018-06-04T15:55:55.828Z,7.40
2018-06-04T15:58:25.259Z,6.72
2018-06-04T16:00:54.353Z,8.33
2018-06-04T16:03:23.604Z,8.13
2018-06-04T16:05:52.715Z,9.05
2018-06-04T16:08:21.978Z,8.95
2018-06-04T16:10:51.410Z,8.15
2018-06-04T16:13:20.666Z,8.80
2018-06-04T16:15:49.968Z,8.55
2018-06-04T16:18:19.335Z,8.38
2018-06-04T16:20:48.570Z,8.00
2018-06-04T16:23:17.768Z,7.60
2018-06-04T16:25:47.078Z,7.42
2018-06-04T16:28:16.366Z,7.28
2018-06-04T16:30:45.303Z,7.67
2018-06-04T16:33:14.686Z,8.20
2018-06-04T16:35:43.890Z,8.43
2018-06-04T16:38:13.005Z,8.53
2018-06-04T16:40:42.665Z,8.38
2018-06-04T16:43:11.747Z,8.35
2018-06-04T16:45:41.061Z,9.48
2018-06-04T16:48:10.473Z,9.88
2018-06-04T16:50:39.677Z,10.88
2018-06-04T16:53:09.051Z,9.78
2018-06-04T16:55:38.153Z,10.32
2018-06-04T16:58:07.357Z,10.68
2018-06-04T17:00:36.532Z,10.88
2018-06-04T17:03:05.763Z,10.70
2018-06-04T17:05:34.949Z,10.60
2018-06-04T17:08:04.345Z,10.68
2018-06-04T17:10:33.560Z,12.10
2018-06-04T17:13:03.093Z,11.55
2018-06-04T17:15:32.464Z,11.57
2018-06-04T17:18:02.076Z,11.35
2018-06-04T17:20:33.285Z,11.83
2018-06-04T17:23:03.038Z,11.88
2018-06-04T17:25:32.804Z,11.68
2018-06-04T17:28:02.110Z,12.78
2018-06-04T17:30:31.737Z,11.93
2018-06-04T17:33:01.383Z,12.55
2018-06-04T17:35:30.719Z,13.22
2018-06-04T17:37:59.998Z,18.32
2018-06-04T17:40:28.706Z,32.57
2018-06-04T17:42:58.582Z,67.70
2018-06-04T17:45:27.969Z,153.07
2018-06-04T17:47:57.140Z,100.20
2018-06-04T17:50:26.562Z,39.50
2018-06-04T17:52:55.947Z,26.03
2018-06-04T17:55:25.239Z,23.23
2018-06-04T17:57:54.887Z,22.40
2018-06-04T18:00:24.175Z,24.13
2018-06-04T18:02:53.310Z,24.47
2018-06-04T18:05:22.670Z,24.77
2018-06-04T18:07:52.041Z,26.77
2018-06-04T18:10:21.195Z,26.00
2018-06-04T18:12:50.480Z,26.53
2018-06-04T18:15:19.667Z,27.50
2018-06-04T18:17:49.103Z,26.27
2018-06-04T18:20:18.202Z,25.83
2018-06-04T18:22:47.684Z,27.40
2018-06-04T18:25:16.939Z,27.93
2018-06-04T18:27:46.257Z,29.80
2018-06-04T18:30:15.656Z,30.57
2018-06-04T18:32:45.097Z,30.80
2018-06-04T18:35:14.355Z,32.83
2018-06-04T18:37:43.533Z,29.80
2018-06-04T18:40:12.713Z,27.50
2018-06-04T18:42:41.912Z,24.10
2018-06-04T18:45:11.158Z,23.70
2018-06-04T18:47:40.397Z,24.17
2018-06-04T18:50:09.711Z,23.87
2018-06-04T18:52:38.939Z,23.07
2018-06-04T18:55:08.801Z,24.47
2018-06-04T18:57:37.879Z,25.67
2018-06-04T19:00:07.153Z,33.60
2018-06-04T19:02:36.194Z,42.57
2018-06-04T19:05:07.714Z,33.17
2018-06-04T19:07:37.094Z,29.80
2018-06-04T19:10:06.262Z,28.73
2018-06-04T19:12:35.556Z,30.47
2018-06-04T19:15:05.323Z,26.43
2018-06-04T19:17:34.752Z,27.23
2018-06-04T19:20:04.171Z,29.30
2018-06-04T19:22:33.401Z,27.87
2018-06-04T19:25:02.935Z,24.77
2018-06-04T19:27:33.469Z,23.57
2018-06-04T19:30:02.738Z,25.27
2018-06-04T19:32:32.217Z,25.37
2018-06-04T19:35:01.726Z,24.33
2018-06-04T19:37:30.993Z,23.43
2018-06-04T19:40:00.354Z,24.40
2018-06-04T19:42:32.101Z,22.27
2018-06-04T19:45:02.225Z,22.33
2018-06-04T19:47:31.715Z,23.13
2018-06-04T19:50:01.214Z,23.63
2018-06-04T19:52:30.557Z,22.43
2018-06-04T19:54:59.952Z,23.87
2018-06-04T19:57:29.266Z,24.63
2018-06-04T19:59:58.449Z,26.40
2018-06-04T20:02:27.879Z,26.57
2018-06-04T20:04:58.305Z,24.83
2018-06-04T20:07:27.558Z,27.53
2018-06-04T20:09:57.305Z,25.27
2018-06-04T20:12:27.130Z,25.87
2018-06-04T20:14:57.344Z,27.47
2018-06-04T20:17:26.715Z,30.13
2018-06-04T20:19:56.106Z,28.80
2018-06-04T20:22:25.848Z,26.63
2018-06-04T20:24:54.843Z,27.80
2018-06-04T20:27:24.539Z,27.00
2018-06-04T20:29:54.291Z,26.43
2018-06-04T20:32:23.904Z,23.60
2018-06-04T20:34:53.274Z,23.47
2018-06-04T20:37:22.940Z,23.20
2018-06-04T20:39:52.982Z,22.30
2018-06-04T20:42:22.377Z,23.60
2018-06-04T20:44:51.878Z,23.73
2018-06-04T20:47:21.149Z,23.43
2018-06-04T20:49:50.434Z,24.40
2018-06-04T20:52:19.820Z,23.50
2018-06-04T20:54:49.250Z,23.10
2018-06-04T20:57:18.526Z,25.20
2018-06-04T20:59:48.004Z,24.17
2018-06-04T21:02:17.452Z,23.50
2018-06-04T21:04:46.726Z,25.17
2018-06-04T21:07:15.946Z,25.97
2018-06-04T21:09:45.057Z,24.33
2018-06-04T21:12:14.365Z,23.30
2018-06-04T21:14:43.612Z,24.03
2018-06-04T21:17:12.812Z,22.27
2018-06-04T21:19:42.507Z,22.63
2018-06-04T21:22:11.559Z,23.73
2018-06-04T21:24:40.812Z,23.47
2018-06-04T21:27:09.975Z,23.33
2018-06-04T21:29:39.231Z,23.97
2018-06-04T21:32:08.353Z,23.90
2018-06-04T21:34:37.661Z,24.37
2018-06-04T21:37:06.788Z,24.43
2018-06-04T21:39:35.973Z,23.87
2018-06-04T21:42:05.218Z,26.07
2018-06-04T21:44:34.664Z,25.87
2018-06-04T21:47:03.742Z,27.47
2018-06-04T21:49:33.000Z,26.23
2018-06-04T21:52:02.148Z,25.23
2018-06-04T21:54:31.384Z,23.63
2018-06-04T21:57:00.582Z,26.80
2018-06-04T21:59:29.775Z,26.40
2018-06-04T22:01:59.252Z,26.60
2018-06-04T22:04:28.449Z,26.03
2018-06-04T22:06:57.654Z,25.80
2018-06-04T22:09:26.801Z,25.50
2018-06-04T22:11:56.079Z,24.50
2018-06-04T22:14:25.342Z,25.37
2018-06-04T22:16:54.726Z,25.10
2018-06-04T22:19:23.834Z,23.57
2018-06-04T22:21:52.825Z,26.00
2018-06-04T22:24:22.125Z,23.97
2018-06-04T22:26:52.078Z,26.97
2018-06-04T22:29:21.187Z,25.40
2018-06-04T22:31:50.446Z,24.63
2018-06-04T22:34:19.125Z,35.47
2018-06-04T22:36:48.422Z,30.23
2018-06-04T22:39:17.722Z,27.13
2018-06-04T22:41:46.900Z,25.27
2018-06-04T22:44:16.110Z,29.63
2018-06-04T22:46:45.246Z,29.10
2018-06-04T22:49:14.384Z,28.33
2018-06-04T22:51:43.598Z,29.70
2018-06-04T22:54:12.749Z,29.90
2018-06-04T22:56:41.723Z,27.53
2018-06-04T22:59:10.882Z,29.83
2018-06-04T23:01:40.203Z,29.17
2018-06-04T23:04:09.377Z,26.87
2018-06-04T23:06:38.588Z,27.27
2018-06-04T23:09:08.109Z,26.80
2018-06-04T23:11:37.415Z,26.30
2018-06-04T23:14:06.688Z,25.93
2018-06-04T23:16:35.978Z,25.60
2018-06-04T23:19:05.160Z,26.07
2018-06-04T23:21:34.379Z,26.20
2018-06-04T23:24:03.518Z,25.47
2018-06-04T23:26:32.635Z,26.77
2018-06-04T23:29:01.871Z,24.87
2018-06-04T23:31:31.175Z,25.00
2018-06-04T23:34:00.334Z,26.80
2018-06-04T23:36:29.569Z,28.13
2018-06-04T23:38:58.117Z,27.90
2018-06-04T23:41:27.793Z,26.63
2018-06-04T23:43:57.055Z,26.43
2018-06-04T23:46:26.198Z,24.57
2018-06-04T23:48:55.447Z,26.73
2018-06-04T23:51:24.564Z,26.23
2018-06-04T23:53:53.663Z,25.27
2018-06-04T23:56:22.662Z,23.93
2018-06-04T23:58:51.853Z,25.40
